sensor_id;sensor_type;location;lat;lon;timestamp;temperature;humidity
7738;DHT22;29398;45.328;5.558;2023-05-07T00:00:22;19.00;84.60
7738;DHT22;29398;45.328;5.558;2023-05-07T00:01:23;19.00;85.80
7738;DHT22;29398;45.328;5.558;2023-05-07T00:02:25;19.00;86.90
7738;DHT22;29398;45.328;5.558;2023-05-07T00:03:26;19.00;86.30
7738;DHT22;29398;45.328;5.558;2023-05-07T00:04:28;19.00;88.60
7738;DHT22;29398;45.328;5.558;2023-05-07T00:05:29;18.90;90.10
7738;DHT22;29398;45.328;5.558;2023-05-07T00:06:31;18.80;91.00
7738;DHT22;29398;45.328;5.558;2023-05-07T00:07:33;18.90;91.10
7738;DHT22;29398;45.328;5.558;2023-05-07T00:08:35;18.90;91.70
7738;DHT22;29398;45.328;5.558;2023-05-07T00:09:36;18.80;91.50
7738;DHT22;29398;45.328;5.558;2023-05-07T00:10:38;18.90;91.90
7738;DHT22;29398;45.328;5.558;2023-05-07T00:11:39;18.90;91.90
7738;DHT22;29398;45.328;5.558;2023-05-07T00:12:41;18.80;92.00
7738;DHT22;29398;45.328;5.558;2023-05-07T00:13:42;18.80;92.20
7738;DHT22;29398;45.328;5.558;2023-05-07T00:14:43;18.70;92.50
7738;DHT22;29398;45.328;5.558;2023-05-07T00:15:44;18.70;93.00
7738;DHT22;29398;45.328;5.558;2023-05-07T00:16:46;18.50;94.10
7738;DHT22;29398;45.328;5.558;2023-05-07T00:17:49;18.50;75.20
7738;DHT22;29398;45.328;5.558;2023-05-07T00:18:51;18.50;75.70
7738;DHT22;29398;45.328;5.558;2023-05-07T00:19:52;18.50;75.70
7738;DHT22;29398;45.328;5.558;2023-05-07T00:20:54;18.50;75.50
7738;DHT22;29398;45.328;5.558;2023-05-07T00:21:55;18.50;75.90
7738;DHT22;29398;45.328;5.558;2023-05-07T00:22:58;18.50;75.80
7738;DHT22;29398;45.328;5.558;2023-05-07T00:23:59;18.50;75.60
7738;DHT22;29398;45.328;5.558;2023-05-07T00:25:01;18.40;75.10
7738;DHT22;29398;45.328;5.558;2023-05-07T00:26:02;18.40;75.50
7738;DHT22;29398;45.328;5.558;2023-05-07T00:27:04;18.40;76.80
7738;DHT22;29398;45.328;5.558;2023-05-07T00:28:05;18.40;77.30
7738;DHT22;29398;45.328;5.558;2023-05-07T00:29:07;18.50;77.40
7738;DHT22;29398;45.328;5.558;2023-05-07T00:30:08;18.40;78.40
7738;DHT22;29398;45.328;5.558;2023-05-07T00:31:10;18.50;80.80
7738;DHT22;29398;45.328;5.558;2023-05-07T00:32:11;18.40;78.10
7738;DHT22;29398;45.328;5.558;2023-05-07T00:33:13;18.50;78.60
7738;DHT22;29398;45.328;5.558;2023-05-07T00:34:14;18.40;78.40
7738;DHT22;29398;45.328;5.558;2023-05-07T00:35:16;18.40;78.30
7738;DHT22;29398;45.328;5.558;2023-05-07T00:36:17;18.40;78.60
7738;DHT22;29398;45.328;5.558;2023-05-07T00:37:18;18.40;78.80
7738;DHT22;29398;45.328;5.558;2023-05-07T00:38:21;18.40;78.50
7738;DHT22;29398;45.328;5.558;2023-05-07T00:39:23;18.40;78.80
7738;DHT22;29398;45.328;5.558;2023-05-07T00:40:23;18.40;79.10
7738;DHT22;29398;45.328;5.558;2023-05-07T00:41:25;18.40;78.60
7738;DHT22;29398;45.328;5.558;2023-05-07T00:42:26;18.40;78.70
7738;DHT22;29398;45.328;5.558;2023-05-07T00:43:28;18.30;78.80
7738;DHT22;29398;45.328;5.558;2023-05-07T00:44:30;18.30;77.30
7738;DHT22;29398;45.328;5.558;2023-05-07T00:45:32;18.30;78.40
7738;DHT22;29398;45.328;5.558;2023-05-07T00:46:33;18.30;78.30
7738;DHT22;29398;45.328;5.558;2023-05-07T00:47:35;17.90;79.40
7738;DHT22;29398;45.328;5.558;2023-05-07T00:48:36;18.20;78.10
7738;DHT22;29398;45.328;5.558;2023-05-07T00:49:39;18.20;78.60
7738;DHT22;29398;45.328;5.558;2023-05-07T00:50:40;18.00;78.30
7738;DHT22;29398;45.328;5.558;2023-05-07T00:51:42;18.10;78.90
7738;DHT22;29398;45.328;5.558;2023-05-07T00:52:43;18.10;79.00
7738;DHT22;29398;45.328;5.558;2023-05-07T00:53:46;18.10;78.60
7738;DHT22;29398;45.328;5.558;2023-05-07T00:54:47;18.10;77.70
7738;DHT22;29398;45.328;5.558;2023-05-07T00:55:49;18.00;78.20
7738;DHT22;29398;45.328;5.558;2023-05-07T00:56:50;18.00;78.10
7738;DHT22;29398;45.328;5.558;2023-05-07T00:57:52;18.10;77.60
7738;DHT22;29398;45.328;5.558;2023-05-07T00:58:54;18.00;78.20
7738;DHT22;29398;45.328;5.558;2023-05-07T00:59:56;18.00;79.00
7738;DHT22;29398;45.328;5.558;2023-05-07T01:00:57;18.00;79.40
7738;DHT22;29398;45.328;5.558;2023-05-07T01:01:59;18.10;79.50
7738;DHT22;29398;45.328;5.558;2023-05-07T01:03:00;18.10;79.40
7738;DHT22;29398;45.328;5.558;2023-05-07T01:04:02;18.10;79.70
7738;DHT22;29398;45.328;5.558;2023-05-07T01:05:04;18.10;79.20
7738;DHT22;29398;45.328;5.558;2023-05-07T01:06:06;18.10;79.20
7738;DHT22;29398;45.328;5.558;2023-05-07T01:07:08;18.10;79.00
7738;DHT22;29398;45.328;5.558;2023-05-07T01:08:10;18.10;79.90
7738;DHT22;29398;45.328;5.558;2023-05-07T01:09:12;18.10;79.90
7738;DHT22;29398;45.328;5.558;2023-05-07T01:10:14;18.10;79.80
7738;DHT22;29398;45.328;5.558;2023-05-07T01:11:15;18.10;79.70
7738;DHT22;29398;45.328;5.558;2023-05-07T01:12:19;18.00;79.60
7738;DHT22;29398;45.328;5.558;2023-05-07T01:13:20;18.00;80.10
7738;DHT22;29398;45.328;5.558;2023-05-07T01:14:22;17.90;80.70
7738;DHT22;29398;45.328;5.558;2023-05-07T01:15:24;17.90;80.70
7738;DHT22;29398;45.328;5.558;2023-05-07T01:16:26;18.00;80.70
7738;DHT22;29398;45.328;5.558;2023-05-07T01:17:27;17.90;80.50
7738;DHT22;29398;45.328;5.558;2023-05-07T01:18:29;17.90;81.00
7738;DHT22;29398;45.328;5.558;2023-05-07T01:19:30;17.90;80.40
7738;DHT22;29398;45.328;5.558;2023-05-07T01:20:33;17.90;81.20
7738;DHT22;29398;45.328;5.558;2023-05-07T01:21:35;17.90;81.00
7738;DHT22;29398;45.328;5.558;2023-05-07T01:22:41;17.90;81.00
7738;DHT22;29398;45.328;5.558;2023-05-07T01:23:44;17.80;81.10
7738;DHT22;29398;45.328;5.558;2023-05-07T01:24:45;17.80;79.40
7738;DHT22;29398;45.328;5.558;2023-05-07T01:25:51;17.80;78.80
7738;DHT22;29398;45.328;5.558;2023-05-07T01:26:53;17.80;79.00
7738;DHT22;29398;45.328;5.558;2023-05-07T01:27:55;17.80;79.10
7738;DHT22;29398;45.328;5.558;2023-05-07T01:29:01;17.80;79.40
7738;DHT22;29398;45.328;5.558;2023-05-07T01:30:02;17.80;78.90
7738;DHT22;29398;45.328;5.558;2023-05-07T01:31:04;17.80;79.00
7738;DHT22;29398;45.328;5.558;2023-05-07T01:32:08;17.70;78.20
7738;DHT22;29398;45.328;5.558;2023-05-07T01:33:10;17.60;78.30
7738;DHT22;29398;45.328;5.558;2023-05-07T01:34:14;17.70;78.60
7738;DHT22;29398;45.328;5.558;2023-05-07T01:35:18;17.70;78.30
7738;DHT22;29398;45.328;5.558;2023-05-07T01:36:19;17.70;77.90
7738;DHT22;29398;45.328;5.558;2023-05-07T01:37:22;17.60;77.80
7738;DHT22;29398;45.328;5.558;2023-05-07T01:38:24;17.60;78.60
7738;DHT22;29398;45.328;5.558;2023-05-07T01:39:27;17.60;79.00
7738;DHT22;29398;45.328;5.558;2023-05-07T01:40:28;17.70;80.60
7738;DHT22;29398;45.328;5.558;2023-05-07T01:41:30;17.60;78.40
7738;DHT22;29398;45.328;5.558;2023-05-07T01:42:32;17.60;85.40
7738;DHT22;29398;45.328;5.558;2023-05-07T01:43:34;17.50;78.80
7738;DHT22;29398;45.328;5.558;2023-05-07T01:44:35;17.50;79.60
7738;DHT22;29398;45.328;5.558;2023-05-07T01:45:37;17.60;79.20
7738;DHT22;29398;45.328;5.558;2023-05-07T01:46:38;17.60;79.10
7738;DHT22;29398;45.328;5.558;2023-05-07T01:47:40;17.60;79.50
7738;DHT22;29398;45.328;5.558;2023-05-07T01:48:41;17.60;79.00
7738;DHT22;29398;45.328;5.558;2023-05-07T01:49:46;17.70;79.50
7738;DHT22;29398;45.328;5.558;2023-05-07T01:50:47;17.70;79.50
7738;DHT22;29398;45.328;5.558;2023-05-07T01:51:49;17.70;80.10
7738;DHT22;29398;45.328;5.558;2023-05-07T01:52:51;17.80;80.50
7738;DHT22;29398;45.328;5.558;2023-05-07T01:53:54;17.80;80.00
7738;DHT22;29398;45.328;5.558;2023-05-07T01:54:55;17.70;80.40
7738;DHT22;29398;45.328;5.558;2023-05-07T01:55:57;17.80;79.80
7738;DHT22;29398;45.328;5.558;2023-05-07T01:56:59;17.70;80.60
7738;DHT22;29398;45.328;5.558;2023-05-07T01:58:01;17.70;80.90
7738;DHT22;29398;45.328;5.558;2023-05-07T01:59:02;17.70;81.00
7738;DHT22;29398;45.328;5.558;2023-05-07T02:00:05;17.70;81.00
7738;DHT22;29398;45.328;5.558;2023-05-07T02:01:15;17.60;80.50
7738;DHT22;29398;45.328;5.558;2023-05-07T02:02:18;17.60;79.80
7738;DHT22;29398;45.328;5.558;2023-05-07T02:03:20;17.50;80.40
7738;DHT22;29398;45.328;5.558;2023-05-07T02:04:30;17.50;80.70
7738;DHT22;29398;45.328;5.558;2023-05-07T02:05:31;17.50;80.00
7738;DHT22;29398;45.328;5.558;2023-05-07T02:06:39;17.40;80.10
7738;DHT22;29398;45.328;5.558;2023-05-07T02:07:42;17.30;80.40
7738;DHT22;29398;45.328;5.558;2023-05-07T02:08:44;17.30;81.00
7738;DHT22;29398;45.328;5.558;2023-05-07T02:09:47;17.20;81.40
7738;DHT22;29398;45.328;5.558;2023-05-07T02:10:49;17.20;81.90
7738;DHT22;29398;45.328;5.558;2023-05-07T02:11:52;17.20;81.90
7738;DHT22;29398;45.328;5.558;2023-05-07T02:12:55;16.50;81.90
7738;DHT22;29398;45.328;5.558;2023-05-07T02:13:56;17.30;81.70
7738;DHT22;29398;45.328;5.558;2023-05-07T02:14:57;17.30;81.30
7738;DHT22;29398;45.328;5.558;2023-05-07T02:15:58;17.30;81.20
7738;DHT22;29398;45.328;5.558;2023-05-07T02:17:02;17.30;81.90
7738;DHT22;29398;45.328;5.558;2023-05-07T02:18:03;17.30;81.30
7738;DHT22;29398;45.328;5.558;2023-05-07T02:19:05;17.30;81.10
7738;DHT22;29398;45.328;5.558;2023-05-07T02:20:07;17.30;81.20
7738;DHT22;29398;45.328;5.558;2023-05-07T02:21:16;17.30;80.70
7738;DHT22;29398;45.328;5.558;2023-05-07T02:22:17;17.40;80.80
7738;DHT22;29398;45.328;5.558;2023-05-07T02:23:19;17.30;80.50
7738;DHT22;29398;45.328;5.558;2023-05-07T02:24:20;17.30;80.80
7738;DHT22;29398;45.328;5.558;2023-05-07T02:25:23;17.30;80.70
7738;DHT22;29398;45.328;5.558;2023-05-07T02:26:24;17.30;80.20
7738;DHT22;29398;45.328;5.558;2023-05-07T02:27:27;17.30;80.40
7738;DHT22;29398;45.328;5.558;2023-05-07T02:28:28;17.30;80.20
7738;DHT22;29398;45.328;5.558;2023-05-07T02:29:37;17.30;80.30
7738;DHT22;29398;45.328;5.558;2023-05-07T02:30:38;17.30;80.90
7738;DHT22;29398;45.328;5.558;2023-05-07T02:31:41;17.30;81.20
7738;DHT22;29398;45.328;5.558;2023-05-07T02:32:41;17.30;81.20
7738;DHT22;29398;45.328;5.558;2023-05-07T02:33:43;17.30;81.60
7738;DHT22;29398;45.328;5.558;2023-05-07T02:34:46;17.30;82.00
7738;DHT22;29398;45.328;5.558;2023-05-07T02:35:48;17.20;81.90
7738;DHT22;29398;45.328;5.558;2023-05-07T02:36:50;17.30;82.00
7738;DHT22;29398;45.328;5.558;2023-05-07T02:37:55;17.20;82.00
7738;DHT22;29398;45.328;5.558;2023-05-07T02:38:58;17.20;81.90
7738;DHT22;29398;45.328;5.558;2023-05-07T02:40:02;17.20;82.10
7738;DHT22;29398;45.328;5.558;2023-05-07T02:41:05;17.20;82.10
7738;DHT22;29398;45.328;5.558;2023-05-07T02:42:07;17.20;82.20
7738;DHT22;29398;45.328;5.558;2023-05-07T02:43:08;17.20;82.20
7738;DHT22;29398;45.328;5.558;2023-05-07T02:44:10;17.20;82.20
7738;DHT22;29398;45.328;5.558;2023-05-07T02:45:12;17.20;82.50
7738;DHT22;29398;45.328;5.558;2023-05-07T02:46:15;17.20;82.70
7738;DHT22;29398;45.328;5.558;2023-05-07T02:47:20;17.10;82.40
7738;DHT22;29398;45.328;5.558;2023-05-07T02:48:22;17.10;82.60
7738;DHT22;29398;45.328;5.558;2023-05-07T02:49:23;17.10;82.60
7738;DHT22;29398;45.328;5.558;2023-05-07T02:50:25;17.10;82.70
7738;DHT22;29398;45.328;5.558;2023-05-07T02:51:29;17.10;82.80
7738;DHT22;29398;45.328;5.558;2023-05-07T02:52:34;17.00;82.40
7738;DHT22;29398;45.328;5.558;2023-05-07T02:53:35;17.00;82.40
7738;DHT22;29398;45.328;5.558;2023-05-07T02:54:37;17.00;81.70
7738;DHT22;29398;45.328;5.558;2023-05-07T02:55:38;17.00;81.60
7738;DHT22;29398;45.328;5.558;2023-05-07T02:56:41;16.90;82.10
7738;DHT22;29398;45.328;5.558;2023-05-07T02:57:42;16.90;82.90
7738;DHT22;29398;45.328;5.558;2023-05-07T02:58:44;16.90;83.00
7738;DHT22;29398;45.328;5.558;2023-05-07T02:59:46;16.90;83.00
7738;DHT22;29398;45.328;5.558;2023-05-07T03:00:49;16.90;83.10
7738;DHT22;29398;45.328;5.558;2023-05-07T03:02:10;16.90;82.90
7738;DHT22;29398;45.328;5.558;2023-05-07T03:03:12;16.90;83.30
7738;DHT22;29398;45.328;5.558;2023-05-07T03:04:13;16.90;82.60
7738;DHT22;29398;45.328;5.558;2023-05-07T03:05:15;16.90;82.60
7738;DHT22;29398;45.328;5.558;2023-05-07T03:06:16;16.90;82.70
7738;DHT22;29398;45.328;5.558;2023-05-07T03:07:17;16.90;83.00
7738;DHT22;29398;45.328;5.558;2023-05-07T03:08:18;16.80;83.00
7738;DHT22;29398;45.328;5.558;2023-05-07T03:09:20;16.90;83.10
7738;DHT22;29398;45.328;5.558;2023-05-07T03:10:21;16.80;83.20
7738;DHT22;29398;45.328;5.558;2023-05-07T03:11:23;16.80;83.20
7738;DHT22;29398;45.328;5.558;2023-05-07T03:12:26;16.80;83.40
7738;DHT22;29398;45.328;5.558;2023-05-07T03:13:28;16.80;83.70
7738;DHT22;29398;45.328;5.558;2023-05-07T03:14:28;16.80;83.70
7738;DHT22;29398;45.328;5.558;2023-05-07T03:15:30;16.80;83.80
7738;DHT22;29398;45.328;5.558;2023-05-07T03:16:32;16.70;83.70
7738;DHT22;29398;45.328;5.558;2023-05-07T03:17:33;16.70;83.50
7738;DHT22;29398;45.328;5.558;2023-05-07T03:18:34;16.70;82.90
7738;DHT22;29398;45.328;5.558;2023-05-07T03:19:36;16.70;82.90
7738;DHT22;29398;45.328;5.558;2023-05-07T03:21:40;17.20;94.90
7738;DHT22;29398;45.328;5.558;2023-05-07T03:22:41;16.60;81.50
7738;DHT22;29398;45.328;5.558;2023-05-07T03:23:43;16.60;82.10
7738;DHT22;29398;45.328;5.558;2023-05-07T03:25:46;16.70;99.90
7738;DHT22;29398;45.328;5.558;2023-05-07T03:26:47;16.60;82.80
7738;DHT22;29398;45.328;5.558;2023-05-07T03:27:50;16.70;82.90
7738;DHT22;29398;45.328;5.558;2023-05-07T03:28:54;16.60;82.00
7738;DHT22;29398;45.328;5.558;2023-05-07T03:30:58;16.60;82.00
7738;DHT22;29398;45.328;5.558;2023-05-07T03:32:00;16.60;82.40
7738;DHT22;29398;45.328;5.558;2023-05-07T03:33:01;16.60;83.10
7738;DHT22;29398;45.328;5.558;2023-05-07T03:34:04;16.70;85.50
7738;DHT22;29398;45.328;5.558;2023-05-07T03:35:05;16.70;90.70
7738;DHT22;29398;45.328;5.558;2023-05-07T03:36:07;16.80;90.90
7738;DHT22;29398;45.328;5.558;2023-05-07T03:37:09;16.60;82.60
7738;DHT22;29398;45.328;5.558;2023-05-07T03:38:10;16.60;83.40
7738;DHT22;29398;45.328;5.558;2023-05-07T03:39:12;16.60;83.60
7738;DHT22;29398;45.328;5.558;2023-05-07T03:40:15;16.60;84.10
7738;DHT22;29398;45.328;5.558;2023-05-07T03:41:21;16.60;84.10
7738;DHT22;29398;45.328;5.558;2023-05-07T03:42:22;16.60;84.00
7738;DHT22;29398;45.328;5.558;2023-05-07T03:43:27;16.60;84.10
7738;DHT22;29398;45.328;5.558;2023-05-07T03:44:35;16.60;84.30
7738;DHT22;29398;45.328;5.558;2023-05-07T03:45:37;16.60;84.00
7738;DHT22;29398;45.328;5.558;2023-05-07T03:46:46;16.40;84.70
7738;DHT22;29398;45.328;5.558;2023-05-07T03:47:48;16.30;84.90
7738;DHT22;29398;45.328;5.558;2023-05-07T03:48:52;16.20;84.90
7738;DHT22;29398;45.328;5.558;2023-05-07T03:49:55;16.20;84.80
7738;DHT22;29398;45.328;5.558;2023-05-07T03:50:58;16.20;84.70
7738;DHT22;29398;45.328;5.558;2023-05-07T03:52:04;16.10;85.40
7738;DHT22;29398;45.328;5.558;2023-05-07T03:54:12;16.00;85.90
7738;DHT22;29398;45.328;5.558;2023-05-07T03:55:17;16.00;86.70
7738;DHT22;29398;45.328;5.558;2023-05-07T03:56:24;15.90;86.50
7738;DHT22;29398;45.328;5.558;2023-05-07T03:57:28;16.00;87.00
7738;DHT22;29398;45.328;5.558;2023-05-07T03:58:34;16.00;86.70
7738;DHT22;29398;45.328;5.558;2023-05-07T03:59:40;16.00;86.50
7738;DHT22;29398;45.328;5.558;2023-05-07T04:00:43;16.00;86.70
7738;DHT22;29398;45.328;5.558;2023-05-07T04:01:53;16.00;86.80
7738;DHT22;29398;45.328;5.558;2023-05-07T04:02:57;16.00;86.70
7738;DHT22;29398;45.328;5.558;2023-05-07T04:04:01;16.00;87.10
7738;DHT22;29398;45.328;5.558;2023-05-07T04:05:04;15.90;87.60
7738;DHT22;29398;45.328;5.558;2023-05-07T04:06:05;15.90;87.80
7738;DHT22;29398;45.328;5.558;2023-05-07T04:07:09;15.90;88.40
7738;DHT22;29398;45.328;5.558;2023-05-07T04:08:14;15.90;88.40
7738;DHT22;29398;45.328;5.558;2023-05-07T04:09:21;16.00;88.30
7738;DHT22;29398;45.328;5.558;2023-05-07T04:10:22;16.00;87.90
7738;DHT22;29398;45.328;5.558;2023-05-07T04:11:28;16.00;87.60
7738;DHT22;29398;45.328;5.558;2023-05-07T04:12:29;16.00;87.00
7738;DHT22;29398;45.328;5.558;2023-05-07T04:13:33;16.10;87.00
7738;DHT22;29398;45.328;5.558;2023-05-07T04:14:36;16.10;86.00
7738;DHT22;29398;45.328;5.558;2023-05-07T04:15:38;16.10;86.00
7738;DHT22;29398;45.328;5.558;2023-05-07T04:16:42;16.10;86.10
7738;DHT22;29398;45.328;5.558;2023-05-07T04:17:44;16.10;86.40
7738;DHT22;29398;45.328;5.558;2023-05-07T04:18:47;16.10;86.80
7738;DHT22;29398;45.328;5.558;2023-05-07T04:19:48;16.10;87.00
7738;DHT22;29398;45.328;5.558;2023-05-07T04:20:51;16.10;86.10
7738;DHT22;29398;45.328;5.558;2023-05-07T04:21:53;16.10;86.10
7738;DHT22;29398;45.328;5.558;2023-05-07T04:22:54;16.20;85.40
7738;DHT22;29398;45.328;5.558;2023-05-07T04:23:56;16.10;85.40
7738;DHT22;29398;45.328;5.558;2023-05-07T04:24:58;16.10;85.80
7738;DHT22;29398;45.328;5.558;2023-05-07T04:26:01;16.10;86.50
7738;DHT22;29398;45.328;5.558;2023-05-07T04:27:08;16.10;87.30
7738;DHT22;29398;45.328;5.558;2023-05-07T04:28:10;16.10;87.00
7738;DHT22;29398;45.328;5.558;2023-05-07T04:29:14;16.00;87.00
7738;DHT22;29398;45.328;5.558;2023-05-07T04:30:16;16.00;86.70
7738;DHT22;29398;45.328;5.558;2023-05-07T04:31:17;16.00;86.90
7738;DHT22;29398;45.328;5.558;2023-05-07T04:32:24;15.90;87.20
7738;DHT22;29398;45.328;5.558;2023-05-07T04:33:26;15.90;87.20
7738;DHT22;29398;45.328;5.558;2023-05-07T04:34:31;15.90;86.60
7738;DHT22;29398;45.328;5.558;2023-05-07T04:35:33;15.90;87.00
7738;DHT22;29398;45.328;5.558;2023-05-07T04:36:35;15.90;87.40
7738;DHT22;29398;45.328;5.558;2023-05-07T04:37:40;15.80;88.00
7738;DHT22;29398;45.328;5.558;2023-05-07T04:38:42;15.70;88.40
7738;DHT22;29398;45.328;5.558;2023-05-07T04:39:43;15.80;88.80
7738;DHT22;29398;45.328;5.558;2023-05-07T04:40:45;15.80;89.10
7738;DHT22;29398;45.328;5.558;2023-05-07T04:41:50;15.80;90.00
7738;DHT22;29398;45.328;5.558;2023-05-07T04:42:52;17.30;90.00
7738;DHT22;29398;45.328;5.558;2023-05-07T04:43:54;15.80;88.70
7738;DHT22;29398;45.328;5.558;2023-05-07T04:44:59;15.70;88.50
7738;DHT22;29398;45.328;5.558;2023-05-07T04:46:01;15.60;88.80
7738;DHT22;29398;45.328;5.558;2023-05-07T04:47:03;15.60;88.40
7738;DHT22;29398;45.328;5.558;2023-05-07T04:48:05;15.60;89.10
7738;DHT22;29398;45.328;5.558;2023-05-07T04:49:08;15.60;89.00
7738;DHT22;29398;45.328;5.558;2023-05-07T04:50:09;15.70;89.40
7738;DHT22;29398;45.328;5.558;2023-05-07T04:51:12;15.70;89.30
7738;DHT22;29398;45.328;5.558;2023-05-07T04:52:14;15.70;88.70
7738;DHT22;29398;45.328;5.558;2023-05-07T04:53:17;15.80;88.40
7738;DHT22;29398;45.328;5.558;2023-05-07T04:54:18;15.80;88.20
7738;DHT22;29398;45.328;5.558;2023-05-07T04:55:20;15.80;88.00
7738;DHT22;29398;45.328;5.558;2023-05-07T04:56:21;15.80;87.50
7738;DHT22;29398;45.328;5.558;2023-05-07T04:57:23;15.90;87.70
7738;DHT22;29398;45.328;5.558;2023-05-07T04:58:24;15.90;87.70
7738;DHT22;29398;45.328;5.558;2023-05-07T04:59:27;15.90;87.20
7738;DHT22;29398;45.328;5.558;2023-05-07T05:00:29;16.00;87.50
7738;DHT22;29398;45.328;5.558;2023-05-07T05:01:32;16.00;87.10
7738;DHT22;29398;45.328;5.558;2023-05-07T05:02:34;16.00;86.80
7738;DHT22;29398;45.328;5.558;2023-05-07T05:03:36;16.00;86.90
7738;DHT22;29398;45.328;5.558;2023-05-07T05:04:40;16.00;87.60
7738;DHT22;29398;45.328;5.558;2023-05-07T05:05:41;16.10;88.30
7738;DHT22;29398;45.328;5.558;2023-05-07T05:06:43;16.10;88.30
7738;DHT22;29398;45.328;5.558;2023-05-07T05:07:45;16.20;88.00
7738;DHT22;29398;45.328;5.558;2023-05-07T05:08:47;16.20;88.00
7738;DHT22;29398;45.328;5.558;2023-05-07T05:09:48;16.30;88.20
7738;DHT22;29398;45.328;5.558;2023-05-07T05:10:51;16.30;88.10
7738;DHT22;29398;45.328;5.558;2023-05-07T05:11:52;16.30;87.60
7738;DHT22;29398;45.328;5.558;2023-05-07T05:12:54;16.30;88.00
7738;DHT22;29398;45.328;5.558;2023-05-07T05:13:58;16.30;88.00
7738;DHT22;29398;45.328;5.558;2023-05-07T05:15:01;16.40;88.80
7738;DHT22;29398;45.328;5.558;2023-05-07T05:16:04;16.40;89.70
7738;DHT22;29398;45.328;5.558;2023-05-07T05:17:06;16.50;90.50
7738;DHT22;29398;45.328;5.558;2023-05-07T05:18:07;16.50;91.10
7738;DHT22;29398;45.328;5.558;2023-05-07T05:19:09;16.50;91.50
7738;DHT22;29398;45.328;5.558;2023-05-07T05:20:13;16.60;90.90
7738;DHT22;29398;45.328;5.558;2023-05-07T05:21:16;16.60;91.20
7738;DHT22;29398;45.328;5.558;2023-05-07T05:22:18;16.60;91.50
7738;DHT22;29398;45.328;5.558;2023-05-07T05:23:20;16.60;91.80
7738;DHT22;29398;45.328;5.558;2023-05-07T05:24:22;16.60;92.10
7738;DHT22;29398;45.328;5.558;2023-05-07T05:25:24;16.70;92.10
7738;DHT22;29398;45.328;5.558;2023-05-07T05:26:25;16.70;92.40
7738;DHT22;29398;45.328;5.558;2023-05-07T05:27:28;16.70;92.40
7738;DHT22;29398;45.328;5.558;2023-05-07T05:28:29;16.80;92.40
7738;DHT22;29398;45.328;5.558;2023-05-07T05:29:31;16.80;92.60
7738;DHT22;29398;45.328;5.558;2023-05-07T05:30:32;16.80;92.90
7738;DHT22;29398;45.328;5.558;2023-05-07T05:31:35;16.80;92.80
7738;DHT22;29398;45.328;5.558;2023-05-07T05:32:36;16.90;92.50
7738;DHT22;29398;45.328;5.558;2023-05-07T05:33:40;16.80;92.30
7738;DHT22;29398;45.328;5.558;2023-05-07T05:34:41;16.90;92.10
7738;DHT22;29398;45.328;5.558;2023-05-07T05:35:43;16.90;91.50
7738;DHT22;29398;45.328;5.558;2023-05-07T05:36:46;16.90;91.50
7738;DHT22;29398;45.328;5.558;2023-05-07T05:37:49;16.90;91.80
7738;DHT22;29398;45.328;5.558;2023-05-07T05:38:51;17.00;91.60
7738;DHT22;29398;45.328;5.558;2023-05-07T05:39:54;17.00;91.80
7738;DHT22;29398;45.328;5.558;2023-05-07T05:40:55;17.00;92.10
7738;DHT22;29398;45.328;5.558;2023-05-07T05:41:58;17.10;91.80
7738;DHT22;29398;45.328;5.558;2023-05-07T05:42:59;17.20;91.30
7738;DHT22;29398;45.328;5.558;2023-05-07T05:44:01;17.10;91.00
7738;DHT22;29398;45.328;5.558;2023-05-07T05:45:02;17.10;90.40
7738;DHT22;29398;45.328;5.558;2023-05-07T05:46:06;17.00;90.60
7738;DHT22;29398;45.328;5.558;2023-05-07T05:47:10;17.10;90.90
7738;DHT22;29398;45.328;5.558;2023-05-07T05:48:12;17.20;91.00
7738;DHT22;29398;45.328;5.558;2023-05-07T05:49:13;17.20;91.20
7738;DHT22;29398;45.328;5.558;2023-05-07T05:50:15;17.20;90.90
7738;DHT22;29398;45.328;5.558;2023-05-07T05:51:16;17.20;91.00
7738;DHT22;29398;45.328;5.558;2023-05-07T05:52:19;17.20;91.30
7738;DHT22;29398;45.328;5.558;2023-05-07T05:53:21;17.30;91.40
7738;DHT22;29398;45.328;5.558;2023-05-07T05:54:23;17.30;91.60
7738;DHT22;29398;45.328;5.558;2023-05-07T05:55:24;17.40;91.40
7738;DHT22;29398;45.328;5.558;2023-05-07T05:56:26;17.40;91.50
7738;DHT22;29398;45.328;5.558;2023-05-07T05:57:26;17.50;91.40
7738;DHT22;29398;45.328;5.558;2023-05-07T05:58:28;17.50;91.80
7738;DHT22;29398;45.328;5.558;2023-05-07T06:00:36;17.40;87.10
7738;DHT22;29398;45.328;5.558;2023-05-07T06:01:39;17.40;87.10
7738;DHT22;29398;45.328;5.558;2023-05-07T06:02:43;17.50;87.40
7738;DHT22;29398;45.328;5.558;2023-05-07T06:03:44;17.50;87.10
7738;DHT22;29398;45.328;5.558;2023-05-07T06:04:48;17.50;86.50
7738;DHT22;29398;45.328;5.558;2023-05-07T06:05:52;17.50;86.60
7738;DHT22;29398;45.328;5.558;2023-05-07T06:06:56;17.50;86.90
7738;DHT22;29398;45.328;5.558;2023-05-07T06:07:57;17.50;87.00
7738;DHT22;29398;45.328;5.558;2023-05-07T06:09:03;17.50;87.60
7738;DHT22;29398;45.328;5.558;2023-05-07T06:10:11;17.60;87.20
7738;DHT22;29398;45.328;5.558;2023-05-07T06:11:15;17.60;87.20
7738;DHT22;29398;45.328;5.558;2023-05-07T06:12:18;17.70;86.80
7738;DHT22;29398;45.328;5.558;2023-05-07T06:13:22;17.70;86.00
7738;DHT22;29398;45.328;5.558;2023-05-07T06:14:25;17.80;86.00
7738;DHT22;29398;45.328;5.558;2023-05-07T06:15:28;17.80;85.40
7738;DHT22;29398;45.328;5.558;2023-05-07T06:16:30;17.80;86.20
7738;DHT22;29398;45.328;5.558;2023-05-07T06:17:33;17.80;86.90
7738;DHT22;29398;45.328;5.558;2023-05-07T06:18:36;17.80;87.80
7738;DHT22;29398;45.328;5.558;2023-05-07T06:19:38;17.80;87.20
7738;DHT22;29398;45.328;5.558;2023-05-07T06:20:39;17.90;87.30
7738;DHT22;29398;45.328;5.558;2023-05-07T06:21:46;17.90;86.90
7738;DHT22;29398;45.328;5.558;2023-05-07T06:22:47;18.00;87.00
7738;DHT22;29398;45.328;5.558;2023-05-07T06:23:50;18.00;85.90
7738;DHT22;29398;45.328;5.558;2023-05-07T06:24:52;18.10;84.50
7738;DHT22;29398;45.328;5.558;2023-05-07T06:25:55;18.10;84.60
7738;DHT22;29398;45.328;5.558;2023-05-07T06:27:00;18.10;85.30
7738;DHT22;29398;45.328;5.558;2023-05-07T06:28:03;18.20;85.70
7738;DHT22;29398;45.328;5.558;2023-05-07T06:29:06;18.20;84.90
7738;DHT22;29398;45.328;5.558;2023-05-07T06:30:08;18.30;84.90
7738;DHT22;29398;45.328;5.558;2023-05-07T06:31:12;18.30;84.50
7738;DHT22;29398;45.328;5.558;2023-05-07T06:32:15;18.20;84.50
7738;DHT22;29398;45.328;5.558;2023-05-07T06:33:18;18.30;85.90
7738;DHT22;29398;45.328;5.558;2023-05-07T06:34:22;18.30;84.70
7738;DHT22;29398;45.328;5.558;2023-05-07T06:35:24;18.30;84.80
7738;DHT22;29398;45.328;5.558;2023-05-07T06:36:25;18.30;85.10
7738;DHT22;29398;45.328;5.558;2023-05-07T06:37:30;18.30;86.00
7738;DHT22;29398;45.328;5.558;2023-05-07T06:38:37;18.40;84.70
7738;DHT22;29398;45.328;5.558;2023-05-07T06:39:39;18.40;86.20
7738;DHT22;29398;45.328;5.558;2023-05-07T06:40:41;18.50;85.10
7738;DHT22;29398;45.328;5.558;2023-05-07T06:41:43;18.50;84.70
7738;DHT22;29398;45.328;5.558;2023-05-07T06:42:55;18.60;84.80
7738;DHT22;29398;45.328;5.558;2023-05-07T06:44:04;18.60;85.50
7738;DHT22;29398;45.328;5.558;2023-05-07T06:45:12;18.60;84.70
7738;DHT22;29398;45.328;5.558;2023-05-07T06:46:13;18.60;85.40